sensor_id;sensor_type;location;lat;lon;timestamp;pressure;altitude;pressure_sealevel;temperature;humidity
74346;BME280;62776;50.518;6.732;2023-03-11T00:02:13;95467.59;;;0.43;100.00
74346;BME280;62776;50.518;6.732;2023-03-11T00:05:08;95463.25;;;0.34;100.00
74346;BME280;62776;50.518;6.732;2023-03-11T00:07:57;95473.53;;;0.42;100.00
74346;BME280;62776;50.518;6.732;2023-03-11T00:10:46;95466.63;;;0.33;100.00
74346;BME280;62776;50.518;6.732;2023-03-11T00:13:39;95468.38;;;0.39;100.00
74346;BME280;62776;50.518;6.732;2023-03-11T00:16:32;95481.09;;;0.31;100.00
74346;BME280;62776;50.518;6.732;2023-03-11T00:19:24;95475.22;;;0.40;100.00
74346;BME280;62776;50.518;6.732;2023-03-11T00:22:10;95480.38;;;0.44;100.00
74346;BME280;62776;50.518;6.732;2023-03-11T00:24:56;95484.63;;;0.42;100.00
74346;BME280;62776;50.518;6.732;2023-03-11T00:27:43;95494.88;;;0.44;100.00
74346;BME280;62776;50.518;6.732;2023-03-11T00:30:30;95494.00;;;0.43;100.00
74346;BME280;62776;50.518;6.732;2023-03-11T00:33:24;95507.59;;;0.39;100.00
74346;BME280;62776;50.518;6.732;2023-03-11T00:36:27;95508.31;;;0.29;100.00
74346;BME280;62776;50.518;6.732;2023-03-11T00:39:18;95506.75;;;0.42;100.00
74346;BME280;62776;50.518;6.732;2023-03-11T00:42:04;95510.22;;;0.45;100.00
74346;BME280;62776;50.518;6.732;2023-03-11T00:44:53;95510.22;;;0.45;100.00
74346;BME280;62776;50.518;6.732;2023-03-11T00:47:40;95511.94;;;0.46;100.00
74346;BME280;62776;50.518;6.732;2023-03-11T00:50:30;95506.75;;;0.40;100.00
74346;BME280;62776;50.518;6.732;2023-03-11T00:53:17;95504.28;;;0.46;100.00
74346;BME280;62776;50.518;6.732;2023-03-11T00:56:11;95503.25;;;0.32;100.00
74346;BME280;62776;50.518;6.732;2023-03-11T00:58:58;95515.28;;;0.42;100.00
74346;BME280;62776;50.518;6.732;2023-03-11T01:01:46;95508.44;;;0.41;100.00
74346;BME280;62776;50.518;6.732;2023-03-11T01:04:34;95509.22;;;0.34;100.00
74346;BME280;62776;50.518;6.732;2023-03-11T01:07:22;95510.06;;;0.32;100.00
74346;BME280;62776;50.518;6.732;2023-03-11T01:10:10;95519.41;;;0.30;100.00
74346;BME280;62776;50.518;6.732;2023-03-11T01:12:58;95511.78;;;0.33;100.00
74346;BME280;62776;50.518;6.732;2023-03-11T01:15:44;95522.00;;;0.34;100.00
74346;BME280;62776;50.518;6.732;2023-03-11T01:18:31;95518.66;;;0.40;100.00
74346;BME280;62776;50.518;6.732;2023-03-11T01:21:17;95536.59;;;0.43;100.00
74346;BME280;62776;50.518;6.732;2023-03-11T01:24:04;95532.38;;;0.46;100.00
74346;BME280;62776;50.518;6.732;2023-03-11T01:26:50;95545.22;;;0.49;100.00
74346;BME280;62776;50.518;6.732;2023-03-11T01:29:42;95548.59;;;0.48;100.00
74346;BME280;62776;50.518;6.732;2023-03-11T01:32:29;95546.91;;;0.50;100.00
74346;BME280;62776;50.518;6.732;2023-03-11T01:35:17;95541.75;;;0.47;100.00
74346;BME280;62776;50.518;6.732;2023-03-11T01:38:04;95542.66;;;0.52;100.00
74346;BME280;62776;50.518;6.732;2023-03-11T01:41:02;95543.53;;;0.51;100.00
74346;BME280;62776;50.518;6.732;2023-03-11T01:43:51;95552.88;;;0.51;100.00
74346;BME280;62776;50.518;6.732;2023-03-11T01:49:43;95547.84;;;0.58;100.00
74346;BME280;62776;50.518;6.732;2023-03-11T01:52:30;95557.22;;;0.58;100.00
74346;BME280;62776;50.518;6.732;2023-03-11T01:55:17;95550.38;;;0.55;100.00
74346;BME280;62776;50.518;6.732;2023-03-11T01:58:08;95557.09;;;0.47;100.00
74346;BME280;62776;50.518;6.732;2023-03-11T02:00:56;95549.41;;;0.47;100.00
74346;BME280;62776;50.518;6.732;2023-03-11T02:03:45;95562.28;;;0.52;100.00
74346;BME280;62776;50.518;6.732;2023-03-11T02:06:32;95562.28;;;0.52;100.00
74346;BME280;62776;50.518;6.732;2023-03-11T02:09:22;95554.53;;;0.47;100.00
74346;BME280;62776;50.518;6.732;2023-03-11T02:12:10;95554.50;;;0.44;100.00
74346;BME280;62776;50.518;6.732;2023-03-11T02:14:58;95555.31;;;0.42;100.00
74346;BME280;62776;50.518;6.732;2023-03-11T02:17:48;95554.44;;;0.41;100.00
74346;BME280;62776;50.518;6.732;2023-03-11T02:23:56;95549.94;;;0.21;100.00
74346;BME280;62776;50.518;6.732;2023-03-11T02:27:05;95557.44;;;0.07;100.00
74346;BME280;62776;50.518;6.732;2023-03-11T02:29:53;95558.41;;;0.17;100.00
74346;BME280;62776;50.518;6.732;2023-03-11T02:32:43;95569.38;;;0.11;100.00
74346;BME280;62776;50.518;6.732;2023-03-11T02:35:30;95566.81;;;0.10;100.00
74346;BME280;62776;50.518;6.732;2023-03-11T02:38:16;95570.16;;;0.04;100.00
74346;BME280;62776;50.518;6.732;2023-03-11T02:41:06;95574.34;;;-0.01;100.00
74346;BME280;62776;50.518;6.732;2023-03-11T02:43:53;95580.28;;;-0.04;100.00
74346;BME280;62776;50.518;6.732;2023-03-11T02:46:42;95589.56;;;-0.09;100.00
74346;BME280;62776;50.518;6.732;2023-03-11T02:49:29;95588.63;;;-0.14;100.00
74346;BME280;62776;50.518;6.732;2023-03-11T02:52:16;95571.56;;;-0.18;100.00
74346;BME280;62776;50.518;6.732;2023-03-11T02:55:04;95571.44;;;-0.24;100.00
74346;BME280;62776;50.518;6.732;2023-03-11T02:57:50;95580.84;;;-0.23;100.00
74346;BME280;62776;50.518;6.732;2023-03-11T03:00:36;95579.94;;;-0.26;100.00
74346;BME280;62776;50.518;6.732;2023-03-11T03:03:24;95579.06;;;-0.27;100.00
74346;BME280;62776;50.518;6.732;2023-03-11T03:06:10;95570.63;;;-0.21;100.00
74346;BME280;62776;50.518;6.732;2023-03-11T03:08:57;95586.81;;;-0.21;100.00
74346;BME280;62776;50.518;6.732;2023-03-11T03:11:52;95582.38;;;-0.32;100.00
74346;BME280;62776;50.518;6.732;2023-03-11T03:14:38;95571.28;;;-0.36;100.00
74346;BME280;62776;50.518;6.732;2023-03-11T03:17:26;95572.06;;;-0.41;100.00
74346;BME280;62776;50.518;6.732;2023-03-11T03:20:13;95579.59;;;-0.47;100.00
74346;BME280;62776;50.518;6.732;2023-03-11T03:23:06;95583.84;;;-0.48;100.00
74346;BME280;62776;50.518;6.732;2023-03-11T03:25:58;95587.22;;;-0.49;100.00
74346;BME280;62776;50.518;6.732;2023-03-11T03:28:44;95588.91;;;-0.51;100.00
74346;BME280;62776;50.518;6.732;2023-03-11T03:31:32;95593.13;;;-0.53;100.00
74346;BME280;62776;50.518;6.732;2023-03-11T03:34:19;95591.41;;;-0.54;100.00
74346;BME280;62776;50.518;6.732;2023-03-11T03:37:05;95595.56;;;-0.61;100.00
74346;BME280;62776;50.518;6.732;2023-03-11T03:39:52;95601.47;;;-0.62;100.00
74346;BME280;62776;50.518;6.732;2023-03-11T03:42:40;95602.25;;;-0.67;100.00
74346;BME280;62776;50.518;6.732;2023-03-11T03:45:27;95602.19;;;-0.69;100.00
74346;BME280;62776;50.518;6.732;2023-03-11T03:48:13;95608.09;;;-0.73;100.00
74346;BME280;62776;50.518;6.732;2023-03-11T03:51:06;95598.63;;;-0.80;100.00
74346;BME280;62776;50.518;6.732;2023-03-11T03:53:53;95605.44;;;-0.79;100.00
74346;BME280;62776;50.518;6.732;2023-03-11T03:56:40;95603.56;;;-0.87;100.00
74346;BME280;62776;50.518;6.732;2023-03-11T03:59:27;95607.88;;;-0.85;100.00
74346;BME280;62776;50.518;6.732;2023-03-11T04:02:13;95605.25;;;-0.88;100.00
74346;BME280;62776;50.518;6.732;2023-03-11T04:05:03;95608.53;;;-0.95;100.00
74346;BME280;62776;50.518;6.732;2023-03-11T04:07:54;95608.47;;;-0.98;100.00
74346;BME280;62776;50.518;6.732;2023-03-11T04:10:40;95612.72;;;-0.98;100.00
74346;BME280;62776;50.518;6.732;2023-03-11T04:13:27;95622.84;;;-1.04;100.00
74346;BME280;62776;50.518;6.732;2023-03-11T04:16:20;95620.00;;;-1.18;100.00
74346;BME280;62776;50.518;6.732;2023-03-11T04:19:07;95625.22;;;-1.12;100.00
74346;BME280;62776;50.518;6.732;2023-03-11T04:21:57;95623.38;;;-1.19;100.00
74346;BME280;62776;50.518;6.732;2023-03-11T04:24:44;95622.59;;;-1.16;100.00
74346;BME280;62776;50.518;6.732;2023-03-11T04:27:34;95630.03;;;-1.26;100.00
74346;BME280;62776;50.518;6.732;2023-03-11T04:30:23;95625.72;;;-1.71;100.00
74346;BME280;62776;50.518;6.732;2023-03-11T04:33:11;95627.34;;;-1.33;100.00
74346;BME280;62776;50.518;6.732;2023-03-11T04:35:57;95638.38;;;-1.34;100.00
74346;BME280;62776;50.518;6.732;2023-03-11T04:38:45;95636.66;;;-1.35;100.00
74346;BME280;62776;50.518;6.732;2023-03-11T04:41:31;95630.66;;;-1.37;100.00
74346;BME280;62776;50.518;6.732;2023-03-11T04:44:18;95629.84;;;-1.36;100.00
74346;BME280;62776;50.518;6.732;2023-03-11T04:47:04;95634.91;;;-1.38;100.00
74346;BME280;62776;50.518;6.732;2023-03-11T04:49:50;95634.06;;;-1.38;100.00
74346;BME280;62776;50.518;6.732;2023-03-11T04:52:38;95646.72;;;-1.41;100.00
74346;BME280;62776;50.518;6.732;2023-03-11T04:55:26;95647.53;;;-1.44;100.00
74346;BME280;62776;50.518;6.732;2023-03-11T04:58:12;95649.16;;;-1.47;100.00
74346;BME280;62776;50.518;6.732;2023-03-11T05:01:00;95639.75;;;-1.48;100.00
74346;BME280;62776;50.518;6.732;2023-03-11T05:03:47;95649.94;;;-1.51;100.00
74346;BME280;62776;50.518;6.732;2023-03-11T05:06:34;95650.75;;;-1.51;100.00
74346;BME280;62776;50.518;6.732;2023-03-11T05:09:20;95655.75;;;-1.55;100.00
74346;BME280;62776;50.518;6.732;2023-03-11T05:12:08;95658.25;;;-1.58;100.00
74346;BME280;62776;50.518;6.732;2023-03-11T05:14:55;95658.19;;;-1.61;100.00
74346;BME280;62776;50.518;6.732;2023-03-11T05:17:43;95661.56;;;-1.62;100.00
74346;BME280;62776;50.518;6.732;2023-03-11T05:20:29;95658.97;;;-1.65;100.00
74346;BME280;62776;50.518;6.732;2023-03-11T05:23:18;95651.19;;;-1.71;100.00
74346;BME280;62776;50.518;6.732;2023-03-11T05:26:13;95660.50;;;-1.72;100.00
74346;BME280;62776;50.518;6.732;2023-03-11T05:29:01;95666.41;;;-1.73;100.00
74346;BME280;62776;50.518;6.732;2023-03-11T05:31:48;95669.81;;;-1.74;100.00
74346;BME280;62776;50.518;6.732;2023-03-11T05:34:37;95671.47;;;-1.74;100.00
74346;BME280;62776;50.518;6.732;2023-03-11T05:37:30;95673.88;;;-1.81;100.00
74346;BME280;62776;50.518;6.732;2023-03-11T05:40:17;95676.44;;;-1.81;100.00
74346;BME280;62776;50.518;6.732;2023-03-11T05:43:04;95672.13;;;-1.83;100.00
74346;BME280;62776;50.518;6.732;2023-03-11T05:45:50;95678.81;;;-1.88;100.00
74346;BME280;62776;50.518;6.732;2023-03-11T05:48:38;95682.19;;;-1.89;100.00
74346;BME280;62776;50.518;6.732;2023-03-11T05:51:25;95678.78;;;-1.90;100.00
74346;BME280;62776;50.518;6.732;2023-03-11T05:54:13;95686.44;;;-1.90;100.00
74346;BME280;62776;50.518;6.732;2023-03-11T05:57:04;95688.94;;;-1.91;100.00
74346;BME280;62776;50.518;6.732;2023-03-11T05:59:50;95686.34;;;-1.93;100.00
74346;BME280;62776;50.518;6.732;2023-03-11T06:02:40;95692.19;;;-1.97;100.00
74346;BME280;62776;50.518;6.732;2023-03-11T06:05:29;95691.38;;;-1.96;100.00
74346;BME280;62776;50.518;6.732;2023-03-11T06:08:16;95694.00;;;-1.93;100.00
74346;BME280;62776;50.518;6.732;2023-03-11T06:11:08;95694.75;;;-1.97;100.00
74346;BME280;62776;50.518;6.732;2023-03-11T06:14:02;95691.47;;;-1.91;100.00
74346;BME280;62776;50.518;6.732;2023-03-11T06:16:49;95693.22;;;-1.89;100.00
74346;BME280;62776;50.518;6.732;2023-03-11T06:19:40;95699.16;;;-1.90;100.00
74346;BME280;62776;50.518;6.732;2023-03-11T06:22:28;95696.72;;;-1.84;100.00
74346;BME280;62776;50.518;6.732;2023-03-11T06:25:22;95705.25;;;-1.83;100.00
74346;BME280;62776;50.518;6.732;2023-03-11T06:28:08;95707.84;;;-1.80;100.00
74346;BME280;62776;50.518;6.732;2023-03-11T06:30:56;95712.16;;;-1.77;100.00
74346;BME280;62776;50.518;6.732;2023-03-11T06:33:53;95704.59;;;-1.74;100.00
74346;BME280;62776;50.518;6.732;2023-03-11T06:36:41;95716.63;;;-1.67;100.00
74346;BME280;62776;50.518;6.732;2023-03-11T06:39:27;95715.94;;;-1.60;100.00
74346;BME280;62776;50.518;6.732;2023-03-11T06:42:13;95725.31;;;-1.59;100.00
74346;BME280;62776;50.518;6.732;2023-03-11T06:45:00;95725.41;;;-1.55;100.00
74346;BME280;62776;50.518;6.732;2023-03-11T06:47:46;95735.69;;;-1.50;100.00
74346;BME280;62776;50.518;6.732;2023-03-11T06:50:33;95733.22;;;-1.47;100.00
74346;BME280;62776;50.518;6.732;2023-03-11T06:53:19;95742.75;;;-1.39;100.00
74346;BME280;62776;50.518;6.732;2023-03-11T06:56:11;95739.34;;;-1.39;100.00
74346;BME280;62776;50.518;6.732;2023-03-11T06:58:58;95755.72;;;-1.28;100.00
74346;BME280;62776;50.518;6.732;2023-03-11T07:01:48;95755.88;;;-1.22;100.00
74346;BME280;62776;50.518;6.732;2023-03-11T07:04:35;95746.69;;;-1.15;100.00
74346;BME280;62776;50.518;6.732;2023-03-11T07:07:22;95756.91;;;-1.12;100.00
74346;BME280;62776;50.518;6.732;2023-03-11T07:10:08;95765.44;;;-1.12;100.00
74346;BME280;62776;50.518;6.732;2023-03-11T07:12:57;95764.75;;;-1.05;100.00
74346;BME280;62776;50.518;6.732;2023-03-11T07:15:44;95780.13;;;-1.02;100.00
74346;BME280;62776;50.518;6.732;2023-03-11T07:18:31;95778.53;;;-0.97;100.00
74346;BME280;62776;50.518;6.732;2023-03-11T07:21:21;95783.63;;;-0.95;100.00
74346;BME280;62776;50.518;6.732;2023-03-11T07:24:12;95796.47;;;-0.92;100.00
74346;BME280;62776;50.518;6.732;2023-03-11T07:27:00;95809.28;;;-0.88;100.00
74346;BME280;62776;50.518;6.732;2023-03-11T07:29:48;95804.31;;;-0.82;100.00
74346;BME280;62776;50.518;6.732;2023-03-11T07:32:37;95811.28;;;-0.75;100.00
74346;BME280;62776;50.518;6.732;2023-03-11T07:35:23;95810.59;;;-0.68;100.00
74346;BME280;62776;50.518;6.732;2023-03-11T07:38:09;95826.16;;;-0.55;100.00
74346;BME280;62776;50.518;6.732;2023-03-11T07:40:59;95815.22;;;-0.48;100.00
74346;BME280;62776;50.518;6.732;2023-03-11T07:43:45;95819.66;;;-0.40;100.00
74346;BME280;62776;50.518;6.732;2023-03-11T07:46:33;95827.44;;;-0.32;100.00
74346;BME280;62776;50.518;6.732;2023-03-11T07:49:20;95827.63;;;-0.23;100.00
74346;BME280;62776;50.518;6.732;2023-03-11T07:52:07;95841.47;;;-0.12;100.00
74346;BME280;62776;50.518;6.732;2023-03-11T07:54:54;95841.59;;;-0.05;100.00
74346;BME280;62776;50.518;6.732;2023-03-11T07:57:40;95853.81;;;0.10;100.00
74346;BME280;62776;50.518;6.732;2023-03-11T08:00:28;95856.44;;;0.15;100.00
74346;BME280;62776;50.518;6.732;2023-03-11T08:03:15;95855.50;;;0.11;100.00
74346;BME280;62776;50.518;6.732;2023-03-11T08:06:14;95856.63;;;0.25;100.00
74346;BME280;62776;50.518;6.732;2023-03-11T08:09:02;95854.97;;;0.27;100.00
74346;BME280;62776;50.518;6.732;2023-03-11T08:11:52;95849.84;;;0.27;100.00
74346;BME280;62776;50.518;6.732;2023-03-11T08:14:40;95857.59;;;0.33;100.00
74346;BME280;62776;50.518;6.732;2023-03-11T08:17:28;95854.34;;;0.40;100.00
74346;BME280;62776;50.518;6.732;2023-03-11T08:20:16;95854.59;;;0.55;100.00
74346;BME280;62776;50.518;6.732;2023-03-11T08:23:04;95855.59;;;0.65;100.00
74346;BME280;62776;50.518;6.732;2023-03-11T08:25:52;95848.09;;;0.76;100.00
74346;BME280;62776;50.518;6.732;2023-03-11T08:28:51;95857.53;;;0.80;99.01
74346;BME280;62776;50.518;6.732;2023-03-11T08:31:41;95849.09;;;0.85;97.48
74346;BME280;62776;50.518;6.732;2023-03-11T08:34:44;95838.97;;;0.91;98.02
74346;BME280;62776;50.518;6.732;2023-03-11T08:37:34;95835.66;;;0.98;97.93
74346;BME280;62776;50.518;6.732;2023-03-11T08:40:25;95848.63;;;1.09;95.63
74346;BME280;62776;50.518;6.732;2023-03-11T08:43:23;95845.19;;;1.10;93.71
74346;BME280;62776;50.518;6.732;2023-03-11T08:46:33;95856.19;;;1.03;92.49
74346;BME280;62776;50.518;6.732;2023-03-11T08:49:19;95861.56;;;1.21;91.65
74346;BME280;62776;50.518;6.732;2023-03-11T08:52:07;95859.91;;;1.23;90.88
74346;BME280;62776;50.518;6.732;2023-03-11T08:55:07;95864.13;;;1.19;89.57
74346;BME280;62776;50.518;6.732;2023-03-11T08:58:06;95859.00;;;1.21;88.67
74346;BME280;62776;50.518;6.732;2023-03-11T09:01:03;95860.78;;;1.24;87.21
74346;BME280;62776;50.518;6.732;2023-03-11T09:03:51;95858.31;;;1.31;88.46
74346;BME280;62776;50.518;6.732;2023-03-11T09:06:45;95873.00;;;1.44;88.16
74346;BME280;62776;50.518;6.732;2023-03-11T09:09:46;95862.06;;;1.56;89.50
74346;BME280;62776;50.518;6.732;2023-03-11T09:12:32;95864.00;;;1.75;88.60
74346;BME280;62776;50.518;6.732;2023-03-11T09:15:20;95862.53;;;1.92;86.57
74346;BME280;62776;50.518;6.732;2023-03-11T09:18:14;95858.34;;;2.02;87.32
74346;BME280;62776;50.518;6.732;2023-03-11T09:21:15;95864.47;;;2.16;85.43
74346;BME280;62776;50.518;6.732;2023-03-11T09:24:17;95866.13;;;2.12;86.04
74346;BME280;62776;50.518;6.732;2023-03-11T09:27:10;95866.22;;;2.17;85.41
74346;BME280;62776;50.518;6.732;2023-03-11T09:29:58;95864.59;;;2.26;83.57
74346;BME280;62776;50.518;6.732;2023-03-11T09:32:44;95866.38;;;2.36;82.21
74346;BME280;62776;50.518;6.732;2023-03-11T09:35:42;95867.19;;;2.31;81.38
74346;BME280;62776;50.518;6.732;2023-03-11T09:38:28;95867.22;;;2.34;82.48
74346;BME280;62776;50.518;6.732;2023-03-11T09:41:54;95883.22;;;2.10;80.99
74346;BME280;62776;50.518;6.732;2023-03-11T09:45:12;95877.38;;;2.22;78.57
74346;BME280;62776;50.518;6.732;2023-03-11T09:51:16;95886.91;;;2.35;73.58
74346;BME280;62776;50.518;6.732;2023-03-11T09:54:11;95893.84;;;2.44;69.42
74346;BME280;62776;50.518;6.732;2023-03-11T09:57:00;95899.72;;;2.36;65.01
74346;BME280;62776;50.518;6.732;2023-03-11T09:59:48;95908.22;;;2.29;61.55
74346;BME280;62776;50.518;6.732;2023-03-11T10:02:44;95916.78;;;2.31;63.16
74346;BME280;62776;50.518;6.732;2023-03-11T10:05:39;95919.38;;;2.34;67.06
74346;BME280;62776;50.518;6.732;2023-03-11T10:15:14;95919.78;;;2.75;67.52
74346;BME280;62776;50.518;6.732;2023-03-11T10:18:28;95925.56;;;2.56;62.13
74346;BME280;62776;50.518;6.732;2023-03-11T10:21:47;95923.09;;;2.62;64.36
74346;BME280;62776;50.518;6.732;2023-03-11T10:28:03;95934.16;;;2.60;65.36
74346;BME280;62776;50.518;6.732;2023-03-11T10:31:05;95941.81;;;2.54;65.46
74346;BME280;62776;50.518;6.732;2023-03-11T10:34:19;95939.94;;;2.41;67.84
74346;BME280;62776;50.518;6.732;2023-03-11T10:40:33;95934.91;;;2.47;67.74
74346;BME280;62776;50.518;6.732;2023-03-11T10:43:27;95936.78;;;2.63;65.63
74346;BME280;62776;50.518;6.732;2023-03-11T10:46:23;95936.84;;;2.69;67.31
74346;BME280;62776;50.518;6.732;2023-03-11T10:49:14;95922.38;;;2.78;69.79
74346;BME280;62776;50.518;6.732;2023-03-11T10:52:02;95920.78;;;2.89;70.79
74346;BME280;62776;50.518;6.732;2023-03-11T10:55:01;95919.28;;;3.16;70.85
74346;BME280;62776;50.518;6.732;2023-03-11T10:57:50;95916.16;;;3.56;67.08
74346;BME280;62776;50.518;6.732;2023-03-11T11:00:44;95920.59;;;3.81;61.06
74346;BME280;62776;50.518;6.732;2023-03-11T11:03:32;95921.53;;;4.01;62.73
74346;BME280;62776;50.518;6.732;2023-03-11T11:06:30;95918.16;;;4.13;61.50
74346;BME280;62776;50.518;6.732;2023-03-11T11:09:26;95918.16;;;4.13;56.50
74346;BME280;62776;50.518;6.732;2023-03-11T11:12:16;95921.63;;;4.23;59.03
74346;BME280;62776;50.518;6.732;2023-03-11T11:15:21;95914.66;;;3.97;55.87
74346;BME280;62776;50.518;6.732;2023-03-11T11:18:30;95918.78;;;3.71;56.38
74346;BME280;62776;50.518;6.732;2023-03-11T11:21:36;95923.00;;;3.60;57.38
74346;BME280;62776;50.518;6.732;2023-03-11T11:24:29;95922.19;;;3.64;58.88
74346;BME280;62776;50.518;6.732;2023-03-11T11:30:56;95906.66;;;3.49;56.47
74346;BME280;62776;50.518;6.732;2023-03-11T11:33:53;95912.66;;;3.48;59.65
74346;BME280;62776;50.518;6.732;2023-03-11T11:36:42;95919.66;;;3.67;62.33
74346;BME280;62776;50.518;6.732;2023-03-11T11:40:16;95928.97;;;3.51;59.17
74346;BME280;62776;50.518;6.732;2023-03-11T11:45:37;95926.63;;;3.91;57.15
74346;BME280;62776;50.518;6.732;2023-03-11T11:48:38;95935.19;;;3.91;55.94
74346;BME280;62776;50.518;6.732;2023-03-11T11:51:44;95936.97;;;4.03;56.84
74346;BME280;62776;50.518;6.732;2023-03-11T11:55:01;95944.66;;;4.01;56.25
74346;BME280;62776;50.518;6.732;2023-03-11T11:57:49;95937.09;;;4.35;58.68
74346;BME280;62776;50.518;6.732;2023-03-11T12:01:04;95914.75;;;4.14;53.64
74346;BME280;62776;50.518;6.732;2023-03-11T12:04:32;95918.13;;;4.05;54.41
74346;BME280;62776;50.518;6.732;2023-03-11T12:08:07;95912.06;;;3.91;54.78
74346;BME280;62776;50.518;6.732;2023-03-11T12:11:07;95918.09;;;4.02;55.52
74346;BME280;62776;50.518;6.732;2023-03-11T12:17:01;95917.31;;;4.18;56.67
74346;BME280;62776;50.518;6.732;2023-03-11T12:20:23;95921.53;;;4.01;54.91
74346;BME280;62776;50.518;6.732;2023-03-11T12:26:24;95926.78;;;4.26;57.30
74346;BME280;62776;50.518;6.732;2023-03-11T12:32:30;95922.47;;;4.23;54.62
74346;BME280;62776;50.518;6.732;2023-03-11T12:35:32;95914.81;;;4.40;56.32
74346;BME280;62776;50.518;6.732;2023-03-11T12:38:37;95916.47;;;4.16;52.77
74346;BME280;62776;50.518;6.732;2023-03-11T12:41:38;95919.94;;;4.35;55.55
74346;BME280;62776;50.518;6.732;2023-03-11T12:44:30;95919.13;;;4.51;53.54
74346;BME280;62776;50.518;6.732;2023-03-11T12:47:21;95920.03;;;4.64;56.79
74346;BME280;62776;50.518;6.732;2023-03-11T12:50:35;95914.91;;;4.71;57.81
74346;BME280;62776;50.518;6.732;2023-03-11T12:56:43;95908.09;;;5.02;53.74
74346;BME280;62776;50.518;6.732;2023-03-11T13:08:53;95910.66;;;5.37;50.89
74346;BME280;62776;50.518;6.732;2023-03-11T13:11:47;95909.78;;;5.40;50.40
74346;BME280;62776;50.518;6.732;2023-03-11T13:14:35;95906.31;;;5.53;51.40
74346;BME280;62776;50.518;6.732;2023-03-11T13:17:28;95901.16;;;5.50;49.05
74346;BME280;62776;50.518;6.732;2023-03-11T13:27:10;95911.50;;;5.60;49.56
74346;BME280;62776;50.518;6.732;2023-03-11T13:32:48;95914.88;;;5.94;51.35
74346;BME280;62776;50.518;6.732;2023-03-11T13:35:59;95909.75;;;5.85;49.73
74346;BME280;62776;50.518;6.732;2023-03-11T13:42:34;95913.16;;;5.90;51.38
74346;BME280;62776;50.518;6.732;2023-03-11T13:45:32;95908.00;;;5.90;50.00
74346;BME280;62776;50.518;6.732;2023-03-11T13:48:43;95914.00;;;5.84;48.81
74346;BME280;62776;50.518;6.732;2023-03-11T13:51:42;95909.72;;;5.88;49.68
74346;BME280;62776;50.518;6.732;2023-03-11T13:57:28;95909.75;;;5.85;50.16
74346;BME280;62776;50.518;6.732;2023-03-11T14:00:19;95907.16;;;5.67;48.84
74346;BME280;62776;50.518;6.732;2023-03-11T14:03:12;95909.78;;;5.52;49.20
74346;BME280;62776;50.518;6.732;2023-03-11T14:06:05;95913.22;;;5.57;50.92
74346;BME280;62776;50.518;6.732;2023-03-11T14:08:58;95909.72;;;5.74;49.78
74346;BME280;62776;50.518;6.732;2023-03-11T14:11:45;95903.72;;;5.74;48.90
74346;BME280;62776;50.518;6.732;2023-03-11T14:14:45;95906.31;;;5.71;51.32
74346;BME280;62776;50.518;6.732;2023-03-11T14:17:33;95906.31;;;5.68;51.44
74346;BME280;62776;50.518;6.732;2023-03-11T14:20:26;95902.00;;;5.61;50.49
74346;BME280;62776;50.518;6.732;2023-03-11T14:23:18;95909.78;;;5.52;51.04
74346;BME280;62776;50.518;6.732;2023-03-11T14:26:13;95919.19;;;5.71;52.03
74346;BME280;62776;50.518;6.732;2023-03-11T14:29:14;95925.19;;;5.94;49.97
74346;BME280;62776;50.518;6.732;2023-03-11T14:32:16;95909.34;;;6.77;48.72
74346;BME280;62776;50.518;6.732;2023-03-11T14:35:20;95914.34;;;7.99;47.53
74346;BME280;62776;50.518;6.732;2023-03-11T14:38:20;95918.47;;;8.85;45.00
74346;BME280;62776;50.518;6.732;2023-03-11T14:41:13;95921.31;;;9.26;42.46
74346;BME280;62776;50.518;6.732;2023-03-11T14:44:06;95917.22;;;9.67;39.72
74346;BME280;62776;50.518;6.732;2023-03-11T14:47:04;95922.94;;;9.85;39.39
74346;BME280;62776;50.518;6.732;2023-03-11T14:49:54;95923.88;;;9.31;39.88
74346;BME280;62776;50.518;6.732;2023-03-11T14:53:00;95908.38;;;10.67;39.97
74346;BME280;62776;50.518;6.732;2023-03-11T14:55:59;95909.41;;;11.37;37.16
74346;BME280;62776;50.518;6.732;2023-03-11T14:59:17;95906.59;;;12.46;38.24
74346;BME280;62776;50.518;6.732;2023-03-11T15:02:29;95910.47;;;12.62;37.54
74346;BME280;62776;50.518;6.732;2023-03-11T15:05:21;95907.53;;;12.43;35.98
74346;BME280;62776;50.518;6.732;2023-03-11T15:08:19;95906.63;;;11.79;35.35
74346;BME280;62776;50.518;6.732;2023-03-11T15:11:12;95919.91;;;10.08;37.26
74346;BME280;62776;50.518;6.732;2023-03-11T15:17:27;95925.22;;;8.98;40.47
74346;BME280;62776;50.518;6.732;2023-03-11T15:20:31;95933.97;;;8.18;42.21
74346;BME280;62776;50.518;6.732;2023-03-11T15:23:21;95935.47;;;7.53;44.54
74346;BME280;62776;50.518;6.732;2023-03-11T15:26:17;95935.88;;;7.02;47.37
74346;BME280;62776;50.518;6.732;2023-03-11T15:29:14;95935.25;;;6.64;47.78
74346;BME280;62776;50.518;6.732;2023-03-11T15:32:39;95937.16;;;6.19;47.39
74346;BME280;62776;50.518;6.732;2023-03-11T15:35:29;95942.38;;;5.98;47.76
74346;BME280;62776;50.518;6.732;2023-03-11T15:38:25;95943.25;;;5.64;48.61
74346;BME280;62776;50.518;6.732;2023-03-11T15:41:15;95945.84;;;5.44;48.70
74346;BME280;62776;50.518;6.732;2023-03-11T15:44:01;95941.53;;;5.22;49.79
74346;BME280;62776;50.518;6.732;2023-03-11T15:46:52;95955.28;;;5.19;51.05
74346;BME280;62776;50.518;6.732;2023-03-11T15:49:40;95941.56;;;5.32;51.01
74346;BME280;62776;50.518;6.732;2023-03-11T15:52:29;95945.00;;;5.21;49.92
74346;BME280;62776;50.518;6.732;2023-03-11T15:55:15;95937.25;;;5.09;50.73
74346;BME280;62776;50.518;6.732;2023-03-11T15:58:05;95949.25;;;4.93;50.11
74346;BME280;62776;50.518;6.732;2023-03-11T16:00:55;95941.56;;;5.02;52.21
74346;BME280;62776;50.518;6.732;2023-03-11T16:03:41;95944.13;;;5.28;52.63
74346;BME280;62776;50.518;6.732;2023-03-11T16:06:27;95935.56;;;5.21;53.42
74346;BME280;62776;50.518;6.732;2023-03-11T16:09:14;95943.22;;;5.83;49.73
74346;BME280;62776;50.518;6.732;2023-03-11T16:12:04;95947.50;;;6.07;48.08
74346;BME280;62776;50.518;6.732;2023-03-11T16:14:54;95942.31;;;6.10;48.39
74346;BME280;62776;50.518;6.732;2023-03-11T16:17:40;95945.84;;;5.70;49.66
74346;BME280;62776;50.518;6.732;2023-03-11T16:20:36;95941.56;;;5.28;50.25
74346;BME280;62776;50.518;6.732;2023-03-11T16:23:26;95955.25;;;4.85;50.34